sensor_id;sensor_type;location;lat;lon;timestamp;temperature;humidity
60039;DHT22;45916;52.734;6.544;2023-03-01T00:00:54;-2.70;99.90
60039;DHT22;45916;52.734;6.544;2023-03-01T00:03:20;-2.80;99.90
60039;DHT22;45916;52.734;6.544;2023-03-01T00:05:46;-2.90;99.90
60039;DHT22;45916;52.734;6.544;2023-03-01T00:08:12;-2.90;99.90
60039;DHT22;45916;52.734;6.544;2023-03-01T00:10:38;-2.90;99.90
60039;DHT22;45916;52.734;6.544;2023-03-01T00:13:04;-2.90;99.90
60039;DHT22;45916;52.734;6.544;2023-03-01T00:15:31;-2.90;99.90
60039;DHT22;45916;52.734;6.544;2023-03-01T00:17:57;-2.90;99.90
60039;DHT22;45916;52.734;6.544;2023-03-01T00:20:23;-3.00;99.90
60039;DHT22;45916;52.734;6.544;2023-03-01T00:22:49;-3.00;99.90
60039;DHT22;45916;52.734;6.544;2023-03-01T00:25:14;-2.90;99.90
60039;DHT22;45916;52.734;6.544;2023-03-01T00:27:40;-2.90;99.90
60039;DHT22;45916;52.734;6.544;2023-03-01T00:30:06;-2.90;99.90
60039;DHT22;45916;52.734;6.544;2023-03-01T00:32:32;-2.90;99.90
60039;DHT22;45916;52.734;6.544;2023-03-01T00:34:58;-2.90;99.90
60039;DHT22;45916;52.734;6.544;2023-03-01T00:37:24;-3.00;99.90
60039;DHT22;45916;52.734;6.544;2023-03-01T00:39:50;-3.00;99.90
60039;DHT22;45916;52.734;6.544;2023-03-01T00:42:16;-3.00;99.90
60039;DHT22;45916;52.734;6.544;2023-03-01T00:44:42;-3.00;99.90
60039;DHT22;45916;52.734;6.544;2023-03-01T00:47:08;-3.00;99.90
60039;DHT22;45916;52.734;6.544;2023-03-01T00:49:34;-3.00;99.90
60039;DHT22;45916;52.734;6.544;2023-03-01T00:52:00;-3.10;99.90
60039;DHT22;45916;52.734;6.544;2023-03-01T00:54:25;-3.10;99.90
60039;DHT22;45916;52.734;6.544;2023-03-01T00:56:51;-3.10;99.90
60039;DHT22;45916;52.734;6.544;2023-03-01T00:59:17;-3.00;99.90
60039;DHT22;45916;52.734;6.544;2023-03-01T01:01:42;-3.00;99.90
60039;DHT22;45916;52.734;6.544;2023-03-01T01:04:11;-3.00;99.90
60039;DHT22;45916;52.734;6.544;2023-03-01T01:06:42;-3.10;99.90
60039;DHT22;45916;52.734;6.544;2023-03-01T01:09:10;-3.10;99.90
60039;DHT22;45916;52.734;6.544;2023-03-01T01:11:43;-3.10;99.90
60039;DHT22;45916;52.734;6.544;2023-03-01T01:14:09;-3.10;99.90
60039;DHT22;45916;52.734;6.544;2023-03-01T01:16:35;-3.10;99.90
60039;DHT22;45916;52.734;6.544;2023-03-01T01:19:01;-3.10;99.90
60039;DHT22;45916;52.734;6.544;2023-03-01T01:21:27;-3.10;99.90
60039;DHT22;45916;52.734;6.544;2023-03-01T01:23:53;-3.20;99.90
60039;DHT22;45916;52.734;6.544;2023-03-01T01:26:21;-3.30;99.90
60039;DHT22;45916;52.734;6.544;2023-03-01T01:28:47;-3.30;99.90
60039;DHT22;45916;52.734;6.544;2023-03-01T01:31:13;-3.30;99.90
60039;DHT22;45916;52.734;6.544;2023-03-01T01:33:39;-3.30;99.90
60039;DHT22;45916;52.734;6.544;2023-03-01T01:36:06;-3.40;99.90
60039;DHT22;45916;52.734;6.544;2023-03-01T01:38:33;-3.40;99.90
60039;DHT22;45916;52.734;6.544;2023-03-01T01:40:59;-3.40;99.90
60039;DHT22;45916;52.734;6.544;2023-03-01T01:43:28;-3.30;99.90
60039;DHT22;45916;52.734;6.544;2023-03-01T01:46:22;-3.30;99.90
60039;DHT22;45916;52.734;6.544;2023-03-01T01:48:55;-3.30;99.90
60039;DHT22;45916;52.734;6.544;2023-03-01T01:51:25;-3.30;99.90
60039;DHT22;45916;52.734;6.544;2023-03-01T01:53:57;-3.40;99.90
60039;DHT22;45916;52.734;6.544;2023-03-01T01:56:26;-3.30;99.90
60039;DHT22;45916;52.734;6.544;2023-03-01T01:58:54;-3.30;99.90
60039;DHT22;45916;52.734;6.544;2023-03-01T02:01:20;-3.30;99.90
60039;DHT22;45916;52.734;6.544;2023-03-01T02:03:46;-3.40;99.90
60039;DHT22;45916;52.734;6.544;2023-03-01T02:06:33;-3.40;99.90
60039;DHT22;45916;52.734;6.544;2023-03-01T02:09:06;-3.40;99.90
60039;DHT22;45916;52.734;6.544;2023-03-01T02:11:32;-3.30;99.90
60039;DHT22;45916;52.734;6.544;2023-03-01T02:13:58;-3.20;99.90
60039;DHT22;45916;52.734;6.544;2023-03-01T02:16:25;-3.30;99.90
60039;DHT22;45916;52.734;6.544;2023-03-01T02:18:52;-3.30;99.90
60039;DHT22;45916;52.734;6.544;2023-03-01T02:24:38;-3.40;99.90
60039;DHT22;45916;52.734;6.544;2023-03-01T02:27:06;-3.50;99.90
60039;DHT22;45916;52.734;6.544;2023-03-01T02:29:32;-3.50;99.90
60039;DHT22;45916;52.734;6.544;2023-03-01T02:32:00;-3.50;99.90
60039;DHT22;45916;52.734;6.544;2023-03-01T02:34:28;-3.40;99.90
60039;DHT22;45916;52.734;6.544;2023-03-01T02:36:59;-3.40;99.90
60039;DHT22;45916;52.734;6.544;2023-03-01T02:39:33;-3.50;99.90
60039;DHT22;45916;52.734;6.544;2023-03-01T02:41:59;-3.60;99.90
60039;DHT22;45916;52.734;6.544;2023-03-01T02:44:26;-3.60;99.90
60039;DHT22;45916;52.734;6.544;2023-03-01T02:46:54;-3.60;99.90
60039;DHT22;45916;52.734;6.544;2023-03-01T02:49:34;-3.60;99.90
60039;DHT22;45916;52.734;6.544;2023-03-01T02:57:15;-3.50;99.90
60039;DHT22;45916;52.734;6.544;2023-03-01T02:59:42;-3.50;99.90
60039;DHT22;45916;52.734;6.544;2023-03-01T03:02:19;-3.50;99.90
60039;DHT22;45916;52.734;6.544;2023-03-01T03:04:46;-3.40;99.90
60039;DHT22;45916;52.734;6.544;2023-03-01T03:07:12;-3.40;99.90
60039;DHT22;45916;52.734;6.544;2023-03-01T03:09:38;-3.40;99.90
60039;DHT22;45916;52.734;6.544;2023-03-01T03:12:04;-3.40;99.90
60039;DHT22;45916;52.734;6.544;2023-03-01T03:14:29;-3.40;99.90
60039;DHT22;45916;52.734;6.544;2023-03-01T03:16:55;-3.40;99.90
60039;DHT22;45916;52.734;6.544;2023-03-01T03:19:21;-3.40;99.90
60039;DHT22;45916;52.734;6.544;2023-03-01T03:21:47;-3.40;99.90
60039;DHT22;45916;52.734;6.544;2023-03-01T03:24:13;-3.40;99.90
60039;DHT22;45916;52.734;6.544;2023-03-01T03:26:38;-3.40;99.90
60039;DHT22;45916;52.734;6.544;2023-03-01T03:29:04;-3.40;99.90
60039;DHT22;45916;52.734;6.544;2023-03-01T03:31:29;-3.30;99.90
60039;DHT22;45916;52.734;6.544;2023-03-01T03:33:55;-3.30;99.90
60039;DHT22;45916;52.734;6.544;2023-03-01T03:36:23;-3.30;99.90
60039;DHT22;45916;52.734;6.544;2023-03-01T03:38:49;-3.30;99.90
60039;DHT22;45916;52.734;6.544;2023-03-01T03:41:16;-3.40;99.90
60039;DHT22;45916;52.734;6.544;2023-03-01T03:43:43;-3.50;99.90
60039;DHT22;45916;52.734;6.544;2023-03-01T03:46:10;-3.60;99.90
60039;DHT22;45916;52.734;6.544;2023-03-01T03:48:41;-3.70;99.90
60039;DHT22;45916;52.734;6.544;2023-03-01T03:51:14;-3.70;99.90
60039;DHT22;45916;52.734;6.544;2023-03-01T03:53:40;-3.80;99.90
60039;DHT22;45916;52.734;6.544;2023-03-01T03:56:06;-3.90;99.90
60039;DHT22;45916;52.734;6.544;2023-03-01T03:58:32;-4.00;99.90
60039;DHT22;45916;52.734;6.544;2023-03-01T04:00:58;-4.00;99.90
60039;DHT22;45916;52.734;6.544;2023-03-01T04:03:25;-4.10;99.90
60039;DHT22;45916;52.734;6.544;2023-03-01T04:05:52;-4.10;99.90
60039;DHT22;45916;52.734;6.544;2023-03-01T04:08:20;-4.20;99.90
60039;DHT22;45916;52.734;6.544;2023-03-01T04:10:47;-4.20;99.90
60039;DHT22;45916;52.734;6.544;2023-03-01T04:13:18;-4.20;99.90
60039;DHT22;45916;52.734;6.544;2023-03-01T04:15:49;-4.20;99.90
60039;DHT22;45916;52.734;6.544;2023-03-01T04:18:17;-4.30;99.90
60039;DHT22;45916;52.734;6.544;2023-03-01T04:20:44;-4.30;99.90
60039;DHT22;45916;52.734;6.544;2023-03-01T04:23:18;-4.30;99.90
60039;DHT22;45916;52.734;6.544;2023-03-01T04:25:47;-4.20;99.90
60039;DHT22;45916;52.734;6.544;2023-03-01T04:28:35;-4.20;99.90
60039;DHT22;45916;52.734;6.544;2023-03-01T04:31:09;-4.10;99.90
60039;DHT22;45916;52.734;6.544;2023-03-01T04:33:46;-4.10;99.90
60039;DHT22;45916;52.734;6.544;2023-03-01T04:36:14;-4.10;99.90
60039;DHT22;45916;52.734;6.544;2023-03-01T04:38:41;-4.20;99.90
60039;DHT22;45916;52.734;6.544;2023-03-01T04:41:09;-4.20;99.90
60039;DHT22;45916;52.734;6.544;2023-03-01T04:43:36;-4.30;99.90
60039;DHT22;45916;52.734;6.544;2023-03-01T04:46:12;-4.30;99.90
60039;DHT22;45916;52.734;6.544;2023-03-01T04:48:39;-4.30;99.90
60039;DHT22;45916;52.734;6.544;2023-03-01T04:51:06;-4.30;99.90
60039;DHT22;45916;52.734;6.544;2023-03-01T04:53:32;-4.30;99.90
60039;DHT22;45916;52.734;6.544;2023-03-01T04:55:58;-4.40;99.90
60039;DHT22;45916;52.734;6.544;2023-03-01T04:58:26;-4.40;99.90
60039;DHT22;45916;52.734;6.544;2023-03-01T05:00:52;-4.40;99.90
60039;DHT22;45916;52.734;6.544;2023-03-01T05:03:19;-4.50;99.90
60039;DHT22;45916;52.734;6.544;2023-03-01T05:05:47;-4.50;99.90
60039;DHT22;45916;52.734;6.544;2023-03-01T05:08:13;-4.50;99.90
60039;DHT22;45916;52.734;6.544;2023-03-01T05:10:52;-4.50;99.90
60039;DHT22;45916;52.734;6.544;2023-03-01T05:13:19;-4.60;99.90
60039;DHT22;45916;52.734;6.544;2023-03-01T05:15:59;-4.60;99.90
60039;DHT22;45916;52.734;6.544;2023-03-01T05:18:26;-4.60;99.90
60039;DHT22;45916;52.734;6.544;2023-03-01T05:20:54;-4.60;99.90
60039;DHT22;45916;52.734;6.544;2023-03-01T05:23:22;-4.60;99.90
60039;DHT22;45916;52.734;6.544;2023-03-01T05:25:48;-4.60;99.90
60039;DHT22;45916;52.734;6.544;2023-03-01T05:28:15;-4.70;99.90
60039;DHT22;45916;52.734;6.544;2023-03-01T05:30:41;-4.60;99.90
60039;DHT22;45916;52.734;6.544;2023-03-01T05:33:07;-4.60;99.90
60039;DHT22;45916;52.734;6.544;2023-03-01T05:35:40;-4.60;99.90
60039;DHT22;45916;52.734;6.544;2023-03-01T05:38:07;-4.60;99.90
60039;DHT22;45916;52.734;6.544;2023-03-01T05:40:33;-4.60;99.90
60039;DHT22;45916;52.734;6.544;2023-03-01T05:42:59;-4.60;99.90
60039;DHT22;45916;52.734;6.544;2023-03-01T05:45:27;-4.60;99.90
60039;DHT22;45916;52.734;6.544;2023-03-01T05:47:53;-4.60;99.90
60039;DHT22;45916;52.734;6.544;2023-03-01T05:50:25;-4.70;99.90
60039;DHT22;45916;52.734;6.544;2023-03-01T05:52:57;-4.60;99.90
60039;DHT22;45916;52.734;6.544;2023-03-01T05:55:23;-4.60;99.90
60039;DHT22;45916;52.734;6.544;2023-03-01T05:57:48;-4.60;99.90
60039;DHT22;45916;52.734;6.544;2023-03-01T06:00:17;-4.60;99.90
60039;DHT22;45916;52.734;6.544;2023-03-01T06:02:43;-4.50;99.90
60039;DHT22;45916;52.734;6.544;2023-03-01T06:05:10;-4.50;99.90
60039;DHT22;45916;52.734;6.544;2023-03-01T06:07:36;-4.50;99.90
60039;DHT22;45916;52.734;6.544;2023-03-01T06:10:03;-4.40;99.90
60039;DHT22;45916;52.734;6.544;2023-03-01T06:12:34;-4.40;99.90
60039;DHT22;45916;52.734;6.544;2023-03-01T06:15:00;-4.40;99.90
60039;DHT22;45916;52.734;6.544;2023-03-01T06:17:29;-4.40;99.90
60039;DHT22;45916;52.734;6.544;2023-03-01T06:19:55;-4.40;99.90
60039;DHT22;45916;52.734;6.544;2023-03-01T06:22:20;-4.30;99.90
60039;DHT22;45916;52.734;6.544;2023-03-01T06:24:46;-4.30;99.90
60039;DHT22;45916;52.734;6.544;2023-03-01T06:27:12;-4.30;99.90
60039;DHT22;45916;52.734;6.544;2023-03-01T06:29:37;-4.30;99.90
60039;DHT22;45916;52.734;6.544;2023-03-01T06:32:03;-4.20;99.90
60039;DHT22;45916;52.734;6.544;2023-03-01T06:34:29;-4.20;99.90
60039;DHT22;45916;52.734;6.544;2023-03-01T06:36:55;-4.10;99.90
60039;DHT22;45916;52.734;6.544;2023-03-01T06:39:21;-4.10;99.90
60039;DHT22;45916;52.734;6.544;2023-03-01T06:41:46;-4.00;99.90
60039;DHT22;45916;52.734;6.544;2023-03-01T06:44:12;-3.80;99.90
60039;DHT22;45916;52.734;6.544;2023-03-01T06:46:39;-3.40;99.90
60039;DHT22;45916;52.734;6.544;2023-03-01T06:49:05;-2.70;99.90
60039;DHT22;45916;52.734;6.544;2023-03-01T06:51:35;-1.80;99.90
60039;DHT22;45916;52.734;6.544;2023-03-01T06:54:03;-0.90;99.90
60039;DHT22;45916;52.734;6.544;2023-03-01T06:56:30;-0.10;99.90
60039;DHT22;45916;52.734;6.544;2023-03-01T06:58:55;0.80;99.90
60039;DHT22;45916;52.734;6.544;2023-03-01T07:01:21;1.70;99.90
60039;DHT22;45916;52.734;6.544;2023-03-01T07:03:47;2.70;99.90
60039;DHT22;45916;52.734;6.544;2023-03-01T07:06:12;3.60;99.90
60039;DHT22;45916;52.734;6.544;2023-03-01T07:08:38;4.10;99.90
60039;DHT22;45916;52.734;6.544;2023-03-01T07:11:04;4.40;99.90
60039;DHT22;45916;52.734;6.544;2023-03-01T07:13:31;4.80;99.90
60039;DHT22;45916;52.734;6.544;2023-03-01T07:15:57;5.30;99.90
60039;DHT22;45916;52.734;6.544;2023-03-01T07:18:23;6.00;99.90
60039;DHT22;45916;52.734;6.544;2023-03-01T07:20:49;6.90;99.90
60039;DHT22;45916;52.734;6.544;2023-03-01T07:23:14;7.90;99.90
60039;DHT22;45916;52.734;6.544;2023-03-01T07:25:41;8.80;99.90
60039;DHT22;45916;52.734;6.544;2023-03-01T07:28:07;9.80;99.90
60039;DHT22;45916;52.734;6.544;2023-03-01T07:30:33;10.70;99.90
60039;DHT22;45916;52.734;6.544;2023-03-01T07:32:59;11.70;96.70
60039;DHT22;45916;52.734;6.544;2023-03-01T07:35:26;12.50;87.60
60039;DHT22;45916;52.734;6.544;2023-03-01T07:37:52;13.00;76.90
60039;DHT22;45916;52.734;6.544;2023-03-01T07:40:18;13.80;72.20
60039;DHT22;45916;52.734;6.544;2023-03-01T07:42:44;14.60;66.20
60039;DHT22;45916;52.734;6.544;2023-03-01T07:45:10;15.50;62.90
60039;DHT22;45916;52.734;6.544;2023-03-01T07:47:37;16.50;60.50
60039;DHT22;45916;52.734;6.544;2023-03-01T07:50:03;17.20;56.40
60039;DHT22;45916;52.734;6.544;2023-03-01T07:52:30;17.80;53.20
60039;DHT22;45916;52.734;6.544;2023-03-01T07:54:56;18.30;51.80
60039;DHT22;45916;52.734;6.544;2023-03-01T07:57:22;18.40;50.90
60039;DHT22;45916;52.734;6.544;2023-03-01T07:59:48;18.10;50.30
60039;DHT22;45916;52.734;6.544;2023-03-01T08:02:14;18.50;49.40
60039;DHT22;45916;52.734;6.544;2023-03-01T08:04:41;19.10;48.70
60039;DHT22;45916;52.734;6.544;2023-03-01T08:07:07;19.30;48.00
60039;DHT22;45916;52.734;6.544;2023-03-01T08:09:36;20.00;45.60
60039;DHT22;45916;52.734;6.544;2023-03-01T08:12:03;20.40;45.70
60039;DHT22;45916;52.734;6.544;2023-03-01T08:14:30;20.90;44.60
60039;DHT22;45916;52.734;6.544;2023-03-01T08:16:56;21.30;42.60
60039;DHT22;45916;52.734;6.544;2023-03-01T08:19:22;21.60;42.70
60039;DHT22;45916;52.734;6.544;2023-03-01T08:21:48;22.30;40.80
60039;DHT22;45916;52.734;6.544;2023-03-01T08:24:14;22.80;39.80
60039;DHT22;45916;52.734;6.544;2023-03-01T08:26:39;23.20;39.40
60039;DHT22;45916;52.734;6.544;2023-03-01T08:29:05;23.90;39.10
60039;DHT22;45916;52.734;6.544;2023-03-01T08:31:33;24.50;38.10
60039;DHT22;45916;52.734;6.544;2023-03-01T08:34:04;25.30;35.80
60039;DHT22;45916;52.734;6.544;2023-03-01T08:36:32;25.80;34.40
60039;DHT22;45916;52.734;6.544;2023-03-01T08:38:58;26.10;35.30
60039;DHT22;45916;52.734;6.544;2023-03-01T08:41:24;26.50;34.20
60039;DHT22;45916;52.734;6.544;2023-03-01T08:43:50;26.30;34.00
60039;DHT22;45916;52.734;6.544;2023-03-01T08:46:16;25.80;34.80
60039;DHT22;45916;52.734;6.544;2023-03-01T08:48:42;26.00;33.90
60039;DHT22;45916;52.734;6.544;2023-03-01T08:51:16;26.20;34.20
60039;DHT22;45916;52.734;6.544;2023-03-01T08:53:42;26.40;32.80
60039;DHT22;45916;52.734;6.544;2023-03-01T08:56:09;26.90;33.00
60039;DHT22;45916;52.734;6.544;2023-03-01T08:58:35;27.30;32.60
60039;DHT22;45916;52.734;6.544;2023-03-01T09:01:07;27.70;31.80
60039;DHT22;45916;52.734;6.544;2023-03-01T09:03:32;28.10;31.80
60039;DHT22;45916;52.734;6.544;2023-03-01T09:06:02;28.00;31.00
60039;DHT22;45916;52.734;6.544;2023-03-01T09:08:28;27.90;31.70
60039;DHT22;45916;52.734;6.544;2023-03-01T09:10:54;28.20;32.00
60039;DHT22;45916;52.734;6.544;2023-03-01T09:13:20;28.50;30.90
60039;DHT22;45916;52.734;6.544;2023-03-01T09:15:46;28.50;30.50
60039;DHT22;45916;52.734;6.544;2023-03-01T09:18:11;28.50;30.40
60039;DHT22;45916;52.734;6.544;2023-03-01T09:20:37;28.90;29.60
60039;DHT22;45916;52.734;6.544;2023-03-01T09:23:03;29.20;29.60
60039;DHT22;45916;52.734;6.544;2023-03-01T09:25:28;29.20;30.00
60039;DHT22;45916;52.734;6.544;2023-03-01T09:27:54;29.20;29.20
60039;DHT22;45916;52.734;6.544;2023-03-01T09:30:20;29.20;29.50
60039;DHT22;45916;52.734;6.544;2023-03-01T09:32:46;28.80;29.50
60039;DHT22;45916;52.734;6.544;2023-03-01T09:35:12;28.80;29.50
60039;DHT22;45916;52.734;6.544;2023-03-01T09:37:38;28.10;29.90
60039;DHT22;45916;52.734;6.544;2023-03-01T09:40:28;27.90;29.20
60039;DHT22;45916;52.734;6.544;2023-03-01T09:45:45;28.20;29.50
60039;DHT22;45916;52.734;6.544;2023-03-01T09:48:16;27.20;29.90
60039;DHT22;45916;52.734;6.544;2023-03-01T09:50:44;25.20;29.30
60039;DHT22;45916;52.734;6.544;2023-03-01T09:53:21;24.80;30.90
60039;DHT22;45916;52.734;6.544;2023-03-01T10:00:49;24.90;30.10
60039;DHT22;45916;52.734;6.544;2023-03-01T10:03:38;25.10;30.00
60039;DHT22;45916;52.734;6.544;2023-03-01T10:06:23;24.30;30.20
60039;DHT22;45916;52.734;6.544;2023-03-01T10:09:12;24.60;29.90
60039;DHT22;45916;52.734;6.544;2023-03-01T10:11:42;24.40;29.70
60039;DHT22;45916;52.734;6.544;2023-03-01T10:16:55;23.40;30.40
60039;DHT22;45916;52.734;6.544;2023-03-01T10:19:33;22.20;32.10
60039;DHT22;45916;52.734;6.544;2023-03-01T10:22:07;22.90;31.40
60039;DHT22;45916;52.734;6.544;2023-03-01T10:24:36;22.40;31.20
60039;DHT22;45916;52.734;6.544;2023-03-01T10:27:15;22.20;31.60
60039;DHT22;45916;52.734;6.544;2023-03-01T10:30:06;22.50;31.90
60039;DHT22;45916;52.734;6.544;2023-03-01T10:32:36;22.90;30.60
60039;DHT22;45916;52.734;6.544;2023-03-01T10:35:22;22.60;30.70
60039;DHT22;45916;52.734;6.544;2023-03-01T10:38:17;23.20;31.50
60039;DHT22;45916;52.734;6.544;2023-03-01T10:40:58;22.80;31.50
60039;DHT22;45916;52.734;6.544;2023-03-01T10:43:41;22.20;32.30
60039;DHT22;45916;52.734;6.544;2023-03-01T10:46:26;21.30;33.40
60039;DHT22;45916;52.734;6.544;2023-03-01T10:49:21;20.10;34.10
60039;DHT22;45916;52.734;6.544;2023-03-01T10:51:49;18.50;35.90
60039;DHT22;45916;52.734;6.544;2023-03-01T10:54:32;17.70;38.50
60039;DHT22;45916;52.734;6.544;2023-03-01T10:57:01;17.40;38.80
60039;DHT22;45916;52.734;6.544;2023-03-01T10:59:35;17.30;38.60
60039;DHT22;45916;52.734;6.544;2023-03-01T11:02:18;16.60;38.90
60039;DHT22;45916;52.734;6.544;2023-03-01T11:05:19;15.60;41.60
60039;DHT22;45916;52.734;6.544;2023-03-01T11:07:59;14.50;45.50
60039;DHT22;45916;52.734;6.544;2023-03-01T11:10:31;13.80;44.40
60039;DHT22;45916;52.734;6.544;2023-03-01T11:15:32;12.40;50.60
60039;DHT22;45916;52.734;6.544;2023-03-01T11:17:57;12.10;49.20
60039;DHT22;45916;52.734;6.544;2023-03-01T11:20:29;11.90;50.00
60039;DHT22;45916;52.734;6.544;2023-03-01T11:23:00;11.50;50.90
60039;DHT22;45916;52.734;6.544;2023-03-01T11:25:35;11.30;50.90
60039;DHT22;45916;52.734;6.544;2023-03-01T11:28:05;11.20;51.30
60039;DHT22;45916;52.734;6.544;2023-03-01T11:30:38;11.00;51.10
60039;DHT22;45916;52.734;6.544;2023-03-01T11:35:36;10.40;50.50
60039;DHT22;45916;52.734;6.544;2023-03-01T11:40:58;10.00;52.60
60039;DHT22;45916;52.734;6.544;2023-03-01T11:47:03;9.70;53.00
60039;DHT22;45916;52.734;6.544;2023-03-01T11:57:11;8.60;57.50
60039;DHT22;45916;52.734;6.544;2023-03-01T11:59:44;8.40;57.70
60039;DHT22;45916;52.734;6.544;2023-03-01T12:07:56;8.40;61.30
60039;DHT22;45916;52.734;6.544;2023-03-01T12:10:27;8.30;60.60
60039;DHT22;45916;52.734;6.544;2023-03-01T12:16:05;8.20;62.60
60039;DHT22;45916;52.734;6.544;2023-03-01T12:21:42;8.20;61.40
60039;DHT22;45916;52.734;6.544;2023-03-01T12:32:47;8.00;66.00
60039;DHT22;45916;52.734;6.544;2023-03-01T12:38:37;8.20;64.60
60039;DHT22;45916;52.734;6.544;2023-03-01T12:41:16;8.10;62.00
60039;DHT22;45916;52.734;6.544;2023-03-01T12:51:54;7.90;62.20
60039;DHT22;45916;52.734;6.544;2023-03-01T12:54:33;7.90;62.40
60039;DHT22;45916;52.734;6.544;2023-03-01T12:57:17;7.90;63.70
60039;DHT22;45916;52.734;6.544;2023-03-01T13:03:29;7.80;72.20
60039;DHT22;45916;52.734;6.544;2023-03-01T13:09:14;7.80;65.30
60039;DHT22;45916;52.734;6.544;2023-03-01T13:11:41;7.80;65.30
60039;DHT22;45916;52.734;6.544;2023-03-01T13:16:47;7.80;71.20
60039;DHT22;45916;52.734;6.544;2023-03-01T13:21:44;7.80;69.90
60039;DHT22;45916;52.734;6.544;2023-03-01T13:27:18;7.80;73.00
60039;DHT22;45916;52.734;6.544;2023-03-01T13:29:50;7.80;70.00
60039;DHT22;45916;52.734;6.544;2023-03-01T13:32:20;7.70;67.20
60039;DHT22;45916;52.734;6.544;2023-03-01T13:34:48;7.70;69.60
60039;DHT22;45916;52.734;6.544;2023-03-01T13:37:26;7.80;70.30
60039;DHT22;45916;52.734;6.544;2023-03-01T13:39:55;7.80;66.30
60039;DHT22;45916;52.734;6.544;2023-03-01T13:42:35;7.80;68.60
60039;DHT22;45916;52.734;6.544;2023-03-01T13:45:34;7.70;71.90
60039;DHT22;45916;52.734;6.544;2023-03-01T13:48:22;7.70;69.70
60039;DHT22;45916;52.734;6.544;2023-03-01T13:51:10;7.70;68.00
60039;DHT22;45916;52.734;6.544;2023-03-01T13:53:39;7.70;67.50
60039;DHT22;45916;52.734;6.544;2023-03-01T13:56:19;7.60;67.60
60039;DHT22;45916;52.734;6.544;2023-03-01T13:59:02;7.60;70.60
60039;DHT22;45916;52.734;6.544;2023-03-01T14:01:32;7.50;79.00
60039;DHT22;45916;52.734;6.544;2023-03-01T14:03:59;7.50;67.70
60039;DHT22;45916;52.734;6.544;2023-03-01T14:06:27;7.50;67.70
60039;DHT22;45916;52.734;6.544;2023-03-01T14:09:19;7.60;65.90
60039;DHT22;45916;52.734;6.544;2023-03-01T14:11:59;7.50;67.60
60039;DHT22;45916;52.734;6.544;2023-03-01T14:15:04;7.50;67.20
60039;DHT22;45916;52.734;6.544;2023-03-01T14:19:59;7.60;65.50
60039;DHT22;45916;52.734;6.544;2023-03-01T14:22:32;7.60;65.10
60039;DHT22;45916;52.734;6.544;2023-03-01T14:27:43;7.60;64.90
60039;DHT22;45916;52.734;6.544;2023-03-01T14:30:14;7.50;66.80
60039;DHT22;45916;52.734;6.544;2023-03-01T14:32:41;7.50;65.70
60039;DHT22;45916;52.734;6.544;2023-03-01T14:35:31;7.50;69.70
60039;DHT22;45916;52.734;6.544;2023-03-01T14:37:57;7.50;74.20
60039;DHT22;45916;52.734;6.544;2023-03-01T14:40:32;7.50;68.80
60039;DHT22;45916;52.734;6.544;2023-03-01T14:43:00;7.50;70.10
60039;DHT22;45916;52.734;6.544;2023-03-01T14:45:27;7.50;68.20
60039;DHT22;45916;52.734;6.544;2023-03-01T14:47:55;7.40;68.80
60039;DHT22;45916;52.734;6.544;2023-03-01T14:50:31;7.50;68.20
60039;DHT22;45916;52.734;6.544;2023-03-01T14:53:00;7.50;70.70
60039;DHT22;45916;52.734;6.544;2023-03-01T14:55:34;7.40;70.00
60039;DHT22;45916;52.734;6.544;2023-03-01T14:58:10;7.40;73.00
60039;DHT22;45916;52.734;6.544;2023-03-01T15:00:37;7.40;79.20
60039;DHT22;45916;52.734;6.544;2023-03-01T15:03:13;7.40;75.40
60039;DHT22;45916;52.734;6.544;2023-03-01T15:05:41;7.30;73.60
60039;DHT22;45916;52.734;6.544;2023-03-01T15:08:11;7.30;86.10
60039;DHT22;45916;52.734;6.544;2023-03-01T15:10:56;7.30;82.20
60039;DHT22;45916;52.734;6.544;2023-03-01T15:13:28;7.30;78.30
60039;DHT22;45916;52.734;6.544;2023-03-01T15:16:05;7.20;74.90
60039;DHT22;45916;52.734;6.544;2023-03-01T15:18:32;7.20;75.40
60039;DHT22;45916;52.734;6.544;2023-03-01T15:21:16;7.20;76.50
60039;DHT22;45916;52.734;6.544;2023-03-01T15:24:33;7.10;76.70
60039;DHT22;45916;52.734;6.544;2023-03-01T15:26:49;7.10;74.20
60039;DHT22;45916;52.734;6.544;2023-03-01T15:29:22;7.00;74.90
60039;DHT22;45916;52.734;6.544;2023-03-01T15:34:45;7.00;79.50
60039;DHT22;45916;52.734;6.544;2023-03-01T15:37:48;7.00;81.50
60039;DHT22;45916;52.734;6.544;2023-03-01T15:40:22;6.90;84.90
60039;DHT22;45916;52.734;6.544;2023-03-01T15:42:50;6.90;78.90
60039;DHT22;45916;52.734;6.544;2023-03-01T15:47:48;6.90;78.80
60039;DHT22;45916;52.734;6.544;2023-03-01T15:52:49;6.80;79.60
60039;DHT22;45916;52.734;6.544;2023-03-01T15:55:26;6.70;79.50
60039;DHT22;45916;52.734;6.544;2023-03-01T15:58:04;6.60;80.60
60039;DHT22;45916;52.734;6.544;2023-03-01T16:00:32;6.50;83.10
60039;DHT22;45916;52.734;6.544;2023-03-01T16:02:58;6.60;84.80
60039;DHT22;45916;52.734;6.544;2023-03-01T16:05:30;6.50;87.80
60039;DHT22;45916;52.734;6.544;2023-03-01T16:07:57;6.50;87.50
60039;DHT22;45916;52.734;6.544;2023-03-01T16:10:22;6.40;89.90
60039;DHT22;45916;52.734;6.544;2023-03-01T16:12:52;6.30;92.40
60039;DHT22;45916;52.734;6.544;2023-03-01T16:17:50;6.20;93.00
60039;DHT22;45916;52.734;6.544;2023-03-01T16:20:17;6.10;93.00
60039;DHT22;45916;52.734;6.544;2023-03-01T16:22:44;6.10;93.80
60039;DHT22;45916;52.734;6.544;2023-03-01T16:25:12;6.00;95.40
60039;DHT22;45916;52.734;6.544;2023-03-01T16:27:38;6.00;98.10
60039;DHT22;45916;52.734;6.544;2023-03-01T16:30:05;5.90;97.50
60039;DHT22;45916;52.734;6.544;2023-03-01T16:32:31;5.80;98.10
60039;DHT22;45916;52.734;6.544;2023-03-01T16:34:57;5.80;99.90
60039;DHT22;45916;52.734;6.544;2023-03-01T16:37:23;5.70;99.90
60039;DHT22;45916;52.734;6.544;2023-03-01T16:39:48;5.70;99.90
60039;DHT22;45916;52.734;6.544;2023-03-01T16:42:17;5.70;99.90
60039;DHT22;45916;52.734;6.544;2023-03-01T16:44:43;5.60;99.90
60039;DHT22;45916;52.734;6.544;2023-03-01T16:47:09;5.50;99.90
60039;DHT22;45916;52.734;6.544;2023-03-01T16:49:34;5.40;99.90
60039;DHT22;45916;52.734;6.544;2023-03-01T16:52:00;5.30;99.90
60039;DHT22;45916;52.734;6.544;2023-03-01T16:54:26;5.20;99.90
60039;DHT22;45916;52.734;6.544;2023-03-01T16:56:51;5.10;99.90
60039;DHT22;45916;52.734;6.544;2023-03-01T16:59:17;5.00;99.90
60039;DHT22;45916;52.734;6.544;2023-03-01T17:01:44;4.90;99.90
60039;DHT22;45916;52.734;6.544;2023-03-01T17:04:11;4.90;99.90
60039;DHT22;45916;52.734;6.544;2023-03-01T17:06:37;4.80;99.90
60039;DHT22;45916;52.734;6.544;2023-03-01T17:09:03;4.60;99.90
60039;DHT22;45916;52.734;6.544;2023-03-01T17:11:28;4.40;99.90
60039;DHT22;45916;52.734;6.544;2023-03-01T17:13:54;4.30;99.90
60039;DHT22;45916;52.734;6.544;2023-03-01T17:16:20;4.00;99.90
60039;DHT22;45916;52.734;6.544;2023-03-01T17:18:46;4.00;99.90
60039;DHT22;45916;52.734;6.544;2023-03-01T17:21:13;3.90;99.90
60039;DHT22;45916;52.734;6.544;2023-03-01T17:23:41;3.80;99.90
60039;DHT22;45916;52.734;6.544;2023-03-01T17:26:08;3.60;99.90
60039;DHT22;45916;52.734;6.544;2023-03-01T17:28:34;3.60;99.90
60039;DHT22;45916;52.734;6.544;2023-03-01T17:31:03;3.50;99.90